Aviation Digital Data Service (ADDS)

Output produced by METARs form (0943 UTC 12 February 2016)
found at http://aviationweather.gov/adds/metars/
 
KLCH 120924Z AUTO 00000KT 1/2SM FG VV016 09/09 A3018 RMK AO2 T00940089